sensor_id;sensor_type;location;lat;lon;timestamp;temperature;humidity
78571;SHT31;67861;51.966;5.672;2023-04-06T00:00:30;8.7;46.2
78571;SHT31;67861;51.966;5.672;2023-04-06T00:03:00;8.7;45.5
78571;SHT31;67861;51.966;5.672;2023-04-06T00:05:29;8.6;45.1
78571;SHT31;67861;51.966;5.672;2023-04-06T00:07:59;8.6;44.7
78571;SHT31;67861;51.966;5.672;2023-04-06T00:10:29;8.6;45.3
78571;SHT31;67861;51.966;5.672;2023-04-06T00:13:00;8.6;44.8
78571;SHT31;67861;51.966;5.672;2023-04-06T00:15:29;8.6;45.3
78571;SHT31;67861;51.966;5.672;2023-04-06T00:17:59;8.5;46.1
78571;SHT31;67861;51.966;5.672;2023-04-06T00:20:29;8.5;45.9
78571;SHT31;67861;51.966;5.672;2023-04-06T00:22:59;8.5;46.4
78571;SHT31;67861;51.966;5.672;2023-04-06T00:25:29;8.5;46.2
78571;SHT31;67861;51.966;5.672;2023-04-06T00:27:58;8.5;46.2
78571;SHT31;67861;51.966;5.672;2023-04-06T00:30:28;8.5;46.6
78571;SHT31;67861;51.966;5.672;2023-04-06T00:32:58;8.5;46.4
78571;SHT31;67861;51.966;5.672;2023-04-06T00:35:28;8.5;46.1
78571;SHT31;67861;51.966;5.672;2023-04-06T00:37:58;8.4;46.4
78571;SHT31;67861;51.966;5.672;2023-04-06T00:40:28;8.4;46.5
78571;SHT31;67861;51.966;5.672;2023-04-06T00:42:58;8.4;46.6
78571;SHT31;67861;51.966;5.672;2023-04-06T00:45:28;8.4;45.9
78571;SHT31;67861;51.966;5.672;2023-04-06T00:47:58;8.4;45.7
78571;SHT31;67861;51.966;5.672;2023-04-06T00:50:29;8.3;46.5
78571;SHT31;67861;51.966;5.672;2023-04-06T00:52:59;8.3;47.0
78571;SHT31;67861;51.966;5.672;2023-04-06T00:55:29;8.3;46.7
78571;SHT31;67861;51.966;5.672;2023-04-06T00:57:59;8.3;46.6
78571;SHT31;67861;51.966;5.672;2023-04-06T01:00:31;8.3;46.4
78571;SHT31;67861;51.966;5.672;2023-04-06T01:03:02;8.3;47.0
78571;SHT31;67861;51.966;5.672;2023-04-06T01:05:35;8.2;46.8
78571;SHT31;67861;51.966;5.672;2023-04-06T01:08:08;8.2;46.6
78571;SHT31;67861;51.966;5.672;2023-04-06T01:10:41;8.2;47.0
78571;SHT31;67861;51.966;5.672;2023-04-06T01:13:12;8.2;48.1
78571;SHT31;67861;51.966;5.672;2023-04-06T01:15:42;8.2;48.1
78571;SHT31;67861;51.966;5.672;2023-04-06T01:18:15;8.2;48.0
78571;SHT31;67861;51.966;5.672;2023-04-06T01:20:44;8.1;48.1
78571;SHT31;67861;51.966;5.672;2023-04-06T01:23:14;8.1;48.3
78571;SHT31;67861;51.966;5.672;2023-04-06T01:25:44;8.1;48.5
78571;SHT31;67861;51.966;5.672;2023-04-06T01:28:17;8.1;48.5
78571;SHT31;67861;51.966;5.672;2023-04-06T01:30:47;8.1;48.5
78571;SHT31;67861;51.966;5.672;2023-04-06T01:33:16;8.1;48.9
78571;SHT31;67861;51.966;5.672;2023-04-06T01:35:46;8.0;48.3
78571;SHT31;67861;51.966;5.672;2023-04-06T01:38:15;8.0;48.6
78571;SHT31;67861;51.966;5.672;2023-04-06T01:40:45;8.0;48.0
78571;SHT31;67861;51.966;5.672;2023-04-06T01:43:15;8.0;48.5
78571;SHT31;67861;51.966;5.672;2023-04-06T01:45:44;7.9;48.1
78571;SHT31;67861;51.966;5.672;2023-04-06T01:48:14;7.9;47.9
78571;SHT31;67861;51.966;5.672;2023-04-06T01:50:44;7.9;48.4
78571;SHT31;67861;51.966;5.672;2023-04-06T01:53:13;7.9;48.6
78571;SHT31;67861;51.966;5.672;2023-04-06T01:55:45;7.9;48.5
78571;SHT31;67861;51.966;5.672;2023-04-06T01:58:15;7.9;48.5
78571;SHT31;67861;51.966;5.672;2023-04-06T02:00:45;7.8;49.1
78571;SHT31;67861;51.966;5.672;2023-04-06T02:03:15;7.8;49.0
78571;SHT31;67861;51.966;5.672;2023-04-06T02:05:46;7.8;49.5
78571;SHT31;67861;51.966;5.672;2023-04-06T02:08:16;7.8;49.3
78571;SHT31;67861;51.966;5.672;2023-04-06T02:10:45;7.8;49.1
78571;SHT31;67861;51.966;5.672;2023-04-06T02:13:15;7.8;49.1
78571;SHT31;67861;51.966;5.672;2023-04-06T02:15:45;7.8;49.5
78571;SHT31;67861;51.966;5.672;2023-04-06T02:18:14;7.8;49.2
78571;SHT31;67861;51.966;5.672;2023-04-06T02:20:45;7.8;49.3
78571;SHT31;67861;51.966;5.672;2023-04-06T02:23:17;7.8;49.2
78571;SHT31;67861;51.966;5.672;2023-04-06T02:25:47;7.8;48.8
78571;SHT31;67861;51.966;5.672;2023-04-06T02:28:17;7.8;48.3
78571;SHT31;67861;51.966;5.672;2023-04-06T02:30:47;7.8;48.5
78571;SHT31;67861;51.966;5.672;2023-04-06T02:33:19;7.8;48.4
78571;SHT31;67861;51.966;5.672;2023-04-06T02:35:50;7.8;48.4
78571;SHT31;67861;51.966;5.672;2023-04-06T02:38:20;7.8;48.1
78571;SHT31;67861;51.966;5.672;2023-04-06T02:40:50;7.9;48.2
78571;SHT31;67861;51.966;5.672;2023-04-06T02:43:19;7.9;47.9
78571;SHT31;67861;51.966;5.672;2023-04-06T02:45:49;7.9;48.2
78571;SHT31;67861;51.966;5.672;2023-04-06T02:48:18;7.9;47.9
78571;SHT31;67861;51.966;5.672;2023-04-06T02:50:48;7.9;48.2
78571;SHT31;67861;51.966;5.672;2023-04-06T02:53:17;7.9;47.9
78571;SHT31;67861;51.966;5.672;2023-04-06T02:55:47;8.0;47.4
78571;SHT31;67861;51.966;5.672;2023-04-06T02:58:17;8.0;47.1
78571;SHT31;67861;51.966;5.672;2023-04-06T03:00:47;8.0;46.8
78571;SHT31;67861;51.966;5.672;2023-04-06T03:03:16;8.0;47.0
78571;SHT31;67861;51.966;5.672;2023-04-06T03:05:46;8.0;47.2
78571;SHT31;67861;51.966;5.672;2023-04-06T03:08:18;8.0;47.0
78571;SHT31;67861;51.966;5.672;2023-04-06T03:10:48;8.1;46.9
78571;SHT31;67861;51.966;5.672;2023-04-06T03:13:17;8.1;46.8
78571;SHT31;67861;51.966;5.672;2023-04-06T03:15:47;8.1;46.4
78571;SHT31;67861;51.966;5.672;2023-04-06T03:18:22;8.1;46.3
78571;SHT31;67861;51.966;5.672;2023-04-06T03:20:52;8.1;46.3
78571;SHT31;67861;51.966;5.672;2023-04-06T03:23:25;8.1;46.4
78571;SHT31;67861;51.966;5.672;2023-04-06T03:25:54;8.1;46.2
78571;SHT31;67861;51.966;5.672;2023-04-06T03:28:24;8.1;46.5
78571;SHT31;67861;51.966;5.672;2023-04-06T03:30:54;8.2;46.5
78571;SHT31;67861;51.966;5.672;2023-04-06T03:33:24;8.2;46.4
78571;SHT31;67861;51.966;5.672;2023-04-06T03:35:54;8.2;46.7
78571;SHT31;67861;51.966;5.672;2023-04-06T03:38:24;8.2;45.9
78571;SHT31;67861;51.966;5.672;2023-04-06T03:40:56;8.2;45.8
78571;SHT31;67861;51.966;5.672;2023-04-06T03:43:25;8.2;45.9
78571;SHT31;67861;51.966;5.672;2023-04-06T03:45:55;8.2;46.1
78571;SHT31;67861;51.966;5.672;2023-04-06T03:48:24;8.2;45.6
78571;SHT31;67861;51.966;5.672;2023-04-06T03:50:54;8.2;45.8
78571;SHT31;67861;51.966;5.672;2023-04-06T03:53:24;8.2;45.6
78571;SHT31;67861;51.966;5.672;2023-04-06T03:55:54;8.2;45.0
78571;SHT31;67861;51.966;5.672;2023-04-06T03:58:26;8.2;45.3
78571;SHT31;67861;51.966;5.672;2023-04-06T04:00:56;8.2;45.4
78571;SHT31;67861;51.966;5.672;2023-04-06T04:03:26;8.2;45.3
78571;SHT31;67861;51.966;5.672;2023-04-06T04:05:56;8.2;45.2
78571;SHT31;67861;51.966;5.672;2023-04-06T04:08:26;8.2;45.2
78571;SHT31;67861;51.966;5.672;2023-04-06T04:10:55;8.2;45.2
78571;SHT31;67861;51.966;5.672;2023-04-06T04:13:28;8.2;45.3
78571;SHT31;67861;51.966;5.672;2023-04-06T04:15:57;8.2;46.1
78571;SHT31;67861;51.966;5.672;2023-04-06T04:18:27;8.2;46.0
78571;SHT31;67861;51.966;5.672;2023-04-06T04:20:57;8.2;45.5
78571;SHT31;67861;51.966;5.672;2023-04-06T04:23:27;8.3;45.6
78571;SHT31;67861;51.966;5.672;2023-04-06T04:25:57;8.3;45.8
78571;SHT31;67861;51.966;5.672;2023-04-06T04:28:27;8.3;46.0
78571;SHT31;67861;51.966;5.672;2023-04-06T04:30:57;8.3;46.5
78571;SHT31;67861;51.966;5.672;2023-04-06T04:33:28;8.3;46.5
78571;SHT31;67861;51.966;5.672;2023-04-06T04:35:58;8.3;46.0
78571;SHT31;67861;51.966;5.672;2023-04-06T04:38:27;8.3;45.4
78571;SHT31;67861;51.966;5.672;2023-04-06T04:40:57;8.3;45.5
78571;SHT31;67861;51.966;5.672;2023-04-06T04:43:27;8.3;45.8
78571;SHT31;67861;51.966;5.672;2023-04-06T04:45:56;8.3;45.6
78571;SHT31;67861;51.966;5.672;2023-04-06T04:48:26;8.2;45.9
78571;SHT31;67861;51.966;5.672;2023-04-06T04:50:56;8.2;46.1
78571;SHT31;67861;51.966;5.672;2023-04-06T04:53:25;8.2;46.2
78571;SHT31;67861;51.966;5.672;2023-04-06T04:55:55;8.2;45.9
78571;SHT31;67861;51.966;5.672;2023-04-06T04:58:25;8.2;46.2
78571;SHT31;67861;51.966;5.672;2023-04-06T05:00:57;8.1;46.6
78571;SHT31;67861;51.966;5.672;2023-04-06T05:03:29;8.1;46.7
78571;SHT31;67861;51.966;5.672;2023-04-06T05:06:01;8.1;46.8
78571;SHT31;67861;51.966;5.672;2023-04-06T05:08:31;8.1;46.7
78571;SHT31;67861;51.966;5.672;2023-04-06T05:11:03;8.0;46.6
78571;SHT31;67861;51.966;5.672;2023-04-06T05:13:33;8.0;47.0
78571;SHT31;67861;51.966;5.672;2023-04-06T05:16:03;8.0;46.4
78571;SHT31;67861;51.966;5.672;2023-04-06T05:18:34;8.0;46.4
78571;SHT31;67861;51.966;5.672;2023-04-06T05:21:04;8.0;46.5
78571;SHT31;67861;51.966;5.672;2023-04-06T05:23:36;8.0;46.6
78571;SHT31;67861;51.966;5.672;2023-04-06T05:26:06;8.0;46.9
78571;SHT31;67861;51.966;5.672;2023-04-06T05:28:39;8.0;47.0
78571;SHT31;67861;51.966;5.672;2023-04-06T05:31:10;7.9;46.7
78571;SHT31;67861;51.966;5.672;2023-04-06T05:33:39;7.9;47.1
78571;SHT31;67861;51.966;5.672;2023-04-06T05:36:09;7.9;47.7
78571;SHT31;67861;51.966;5.672;2023-04-06T05:38:39;7.9;47.1
78571;SHT31;67861;51.966;5.672;2023-04-06T05:41:09;8.0;47.3
78571;SHT31;67861;51.966;5.672;2023-04-06T05:43:40;8.0;47.3
78571;SHT31;67861;51.966;5.672;2023-04-06T05:46:10;8.0;46.8
78571;SHT31;67861;51.966;5.672;2023-04-06T05:48:40;8.0;47.8
78571;SHT31;67861;51.966;5.672;2023-04-06T05:51:09;8.0;48.0
78571;SHT31;67861;51.966;5.672;2023-04-06T05:53:39;8.0;47.7
78571;SHT31;67861;51.966;5.672;2023-04-06T05:56:09;8.1;47.6
78571;SHT31;67861;51.966;5.672;2023-04-06T05:58:38;8.1;48.0
78571;SHT31;67861;51.966;5.672;2023-04-06T06:01:08;8.1;48.6
78571;SHT31;67861;51.966;5.672;2023-04-06T06:03:38;8.1;48.0
78571;SHT31;67861;51.966;5.672;2023-04-06T06:06:08;8.2;48.0
78571;SHT31;67861;51.966;5.672;2023-04-06T06:08:38;8.2;48.2
78571;SHT31;67861;51.966;5.672;2023-04-06T06:11:08;8.3;47.7
78571;SHT31;67861;51.966;5.672;2023-04-06T06:13:37;8.3;48.4
78571;SHT31;67861;51.966;5.672;2023-04-06T06:16:07;8.3;48.7
78571;SHT31;67861;51.966;5.672;2023-04-06T06:18:37;8.4;49.0
78571;SHT31;67861;51.966;5.672;2023-04-06T06:21:07;8.4;48.5
78571;SHT31;67861;51.966;5.672;2023-04-06T06:23:37;8.4;49.4
78571;SHT31;67861;51.966;5.672;2023-04-06T06:26:06;8.5;48.7
78571;SHT31;67861;51.966;5.672;2023-04-06T06:28:36;8.6;49.2
78571;SHT31;67861;51.966;5.672;2023-04-06T06:31:05;8.6;48.7
78571;SHT31;67861;51.966;5.672;2023-04-06T06:33:37;8.7;49.0
78571;SHT31;67861;51.966;5.672;2023-04-06T06:36:11;8.7;49.2
78571;SHT31;67861;51.966;5.672;2023-04-06T06:38:40;8.8;49.2
78571;SHT31;67861;51.966;5.672;2023-04-06T06:41:11;8.8;49.6
78571;SHT31;67861;51.966;5.672;2023-04-06T06:43:41;8.9;49.7
78571;SHT31;67861;51.966;5.672;2023-04-06T06:46:10;8.9;49.1
78571;SHT31;67861;51.966;5.672;2023-04-06T06:48:40;8.9;49.5
78571;SHT31;67861;51.966;5.672;2023-04-06T06:51:10;9.0;49.4
78571;SHT31;67861;51.966;5.672;2023-04-06T06:53:39;9.0;49.6
78571;SHT31;67861;51.966;5.672;2023-04-06T06:56:09;9.1;49.6
78571;SHT31;67861;51.966;5.672;2023-04-06T06:58:40;9.1;49.8
78571;SHT31;67861;51.966;5.672;2023-04-06T07:01:09;9.2;50.4
78571;SHT31;67861;51.966;5.672;2023-04-06T07:03:39;9.2;50.2
78571;SHT31;67861;51.966;5.672;2023-04-06T07:06:09;9.3;50.3
78571;SHT31;67861;51.966;5.672;2023-04-06T07:08:38;9.3;50.2
78571;SHT31;67861;51.966;5.672;2023-04-06T07:11:08;9.4;50.3
78571;SHT31;67861;51.966;5.672;2023-04-06T07:13:38;9.4;50.6
78571;SHT31;67861;51.966;5.672;2023-04-06T07:16:07;9.5;50.5
78571;SHT31;67861;51.966;5.672;2023-04-06T07:18:41;9.6;51.6
78571;SHT31;67861;51.966;5.672;2023-04-06T07:21:11;9.7;51.6
78571;SHT31;67861;51.966;5.672;2023-04-06T07:23:41;9.7;51.0
78571;SHT31;67861;51.966;5.672;2023-04-06T07:26:11;9.8;51.5
78571;SHT31;67861;51.966;5.672;2023-04-06T07:28:40;9.9;51.2
78571;SHT31;67861;51.966;5.672;2023-04-06T07:31:10;10.0;50.4
78571;SHT31;67861;51.966;5.672;2023-04-06T07:33:43;10.1;49.1
78571;SHT31;67861;51.966;5.672;2023-04-06T07:36:14;10.2;48.3
78571;SHT31;67861;51.966;5.672;2023-04-06T07:38:44;10.2;47.6
78571;SHT31;67861;51.966;5.672;2023-04-06T07:41:14;10.3;47.4
78571;SHT31;67861;51.966;5.672;2023-04-06T07:43:44;10.4;47.5
78571;SHT31;67861;51.966;5.672;2023-04-06T07:46:14;10.4;47.0
78571;SHT31;67861;51.966;5.672;2023-04-06T07:48:43;10.4;46.9
78571;SHT31;67861;51.966;5.672;2023-04-06T07:51:13;10.5;46.5
78571;SHT31;67861;51.966;5.672;2023-04-06T07:53:46;10.5;46.2
78571;SHT31;67861;51.966;5.672;2023-04-06T07:56:16;10.5;47.1
78571;SHT31;67861;51.966;5.672;2023-04-06T07:58:48;10.6;47.1
78571;SHT31;67861;51.966;5.672;2023-04-06T08:01:17;10.6;46.7
78571;SHT31;67861;51.966;5.672;2023-04-06T08:03:49;10.6;47.5
78571;SHT31;67861;51.966;5.672;2023-04-06T08:06:19;10.6;48.2
78571;SHT31;67861;51.966;5.672;2023-04-06T08:08:49;10.7;47.3
78571;SHT31;67861;51.966;5.672;2023-04-06T08:11:19;10.7;47.3
78571;SHT31;67861;51.966;5.672;2023-04-06T08:13:49;10.7;47.0
78571;SHT31;67861;51.966;5.672;2023-04-06T08:16:19;10.8;47.0
78571;SHT31;67861;51.966;5.672;2023-04-06T08:18:49;10.8;46.5
78571;SHT31;67861;51.966;5.672;2023-04-06T08:21:19;10.8;46.8
78571;SHT31;67861;51.966;5.672;2023-04-06T08:23:49;10.9;46.8
78571;SHT31;67861;51.966;5.672;2023-04-06T08:26:19;10.9;47.3
78571;SHT31;67861;51.966;5.672;2023-04-06T08:28:48;10.9;47.0
78571;SHT31;67861;51.966;5.672;2023-04-06T08:31:20;11.0;47.2
78571;SHT31;67861;51.966;5.672;2023-04-06T08:33:52;11.0;47.5
78571;SHT31;67861;51.966;5.672;2023-04-06T08:36:22;11.1;47.0
78571;SHT31;67861;51.966;5.672;2023-04-06T08:38:52;11.2;47.5
78571;SHT31;67861;51.966;5.672;2023-04-06T08:41:24;11.2;47.5
78571;SHT31;67861;51.966;5.672;2023-04-06T08:43:58;11.3;47.7
78571;SHT31;67861;51.966;5.672;2023-04-06T08:46:29;11.4;47.7
78571;SHT31;67861;51.966;5.672;2023-04-06T08:49:00;11.5;47.7
78571;SHT31;67861;51.966;5.672;2023-04-06T08:51:30;11.6;46.8
78571;SHT31;67861;51.966;5.672;2023-04-06T08:54:00;11.7;46.3
78571;SHT31;67861;51.966;5.672;2023-04-06T08:56:30;11.8;46.4
78571;SHT31;67861;51.966;5.672;2023-04-06T08:59:01;11.8;47.0
78571;SHT31;67861;51.966;5.672;2023-04-06T09:01:37;11.9;46.0
78571;SHT31;67861;51.966;5.672;2023-04-06T09:04:08;12.0;45.4
78571;SHT31;67861;51.966;5.672;2023-04-06T09:06:41;12.1;45.8
78571;SHT31;67861;51.966;5.672;2023-04-06T09:09:10;12.1;45.8
78571;SHT31;67861;51.966;5.672;2023-04-06T09:11:49;12.2;45.6
78571;SHT31;67861;51.966;5.672;2023-04-06T09:14:35;12.3;45.7
78571;SHT31;67861;51.966;5.672;2023-04-06T09:17:06;12.4;45.3
78571;SHT31;67861;51.966;5.672;2023-04-06T09:19:49;12.4;44.6
78571;SHT31;67861;51.966;5.672;2023-04-06T09:22:19;12.5;43.3
78571;SHT31;67861;51.966;5.672;2023-04-06T09:24:50;12.6;44.2
78571;SHT31;67861;51.966;5.672;2023-04-06T09:27:32;12.6;44.5
78571;SHT31;67861;51.966;5.672;2023-04-06T09:30:07;12.6;45.0
78571;SHT31;67861;51.966;5.672;2023-04-06T09:32:51;12.7;44.9
78571;SHT31;67861;51.966;5.672;2023-04-06T09:35:24;12.8;45.3
78571;SHT31;67861;51.966;5.672;2023-04-06T09:37:57;12.8;45.5
78571;SHT31;67861;51.966;5.672;2023-04-06T09:40:27;12.9;44.9
78571;SHT31;67861;51.966;5.672;2023-04-06T09:42:57;13.0;45.5
78571;SHT31;67861;51.966;5.672;2023-04-06T09:45:29;13.0;44.7
78571;SHT31;67861;51.966;5.672;2023-04-06T09:48:06;13.1;45.6
78571;SHT31;67861;51.966;5.672;2023-04-06T09:50:35;13.2;44.2
78571;SHT31;67861;51.966;5.672;2023-04-06T09:53:06;13.2;43.5
78571;SHT31;67861;51.966;5.672;2023-04-06T09:55:41;13.3;44.2
78571;SHT31;67861;51.966;5.672;2023-04-06T09:58:13;13.3;43.7
78571;SHT31;67861;51.966;5.672;2023-04-06T10:00:51;13.4;43.1
78571;SHT31;67861;51.966;5.672;2023-04-06T10:03:31;13.4;42.8
78571;SHT31;67861;51.966;5.672;2023-04-06T10:06:10;13.4;42.5
78571;SHT31;67861;51.966;5.672;2023-04-06T10:08:41;13.5;43.1
78571;SHT31;67861;51.966;5.672;2023-04-06T10:11:14;13.5;42.5
78571;SHT31;67861;51.966;5.672;2023-04-06T10:13:45;13.5;43.6
78571;SHT31;67861;51.966;5.672;2023-04-06T10:16:17;13.5;44.0
78571;SHT31;67861;51.966;5.672;2023-04-06T10:18:54;13.5;42.9
78571;SHT31;67861;51.966;5.672;2023-04-06T10:21:29;13.6;43.5
78571;SHT31;67861;51.966;5.672;2023-04-06T10:24:02;13.6;43.6
78571;SHT31;67861;51.966;5.672;2023-04-06T10:26:37;13.6;43.7
78571;SHT31;67861;51.966;5.672;2023-04-06T10:29:07;13.7;44.1
78571;SHT31;67861;51.966;5.672;2023-04-06T10:31:41;13.7;43.7
78571;SHT31;67861;51.966;5.672;2023-04-06T10:34:16;13.8;45.0
78571;SHT31;67861;51.966;5.672;2023-04-06T10:36:45;13.8;44.5
78571;SHT31;67861;51.966;5.672;2023-04-06T10:39:25;13.9;44.6
78571;SHT31;67861;51.966;5.672;2023-04-06T10:42:09;13.9;44.0
78571;SHT31;67861;51.966;5.672;2023-04-06T10:44:44;14.0;44.0
78571;SHT31;67861;51.966;5.672;2023-04-06T10:47:19;14.1;44.4
78571;SHT31;67861;51.966;5.672;2023-04-06T10:49:51;14.1;45.1
78571;SHT31;67861;51.966;5.672;2023-04-06T10:52:20;14.1;45.1
78571;SHT31;67861;51.966;5.672;2023-04-06T10:54:51;14.2;46.0
78571;SHT31;67861;51.966;5.672;2023-04-06T10:57:29;14.3;46.5
78571;SHT31;67861;51.966;5.672;2023-04-06T11:00:00;14.3;46.9
78571;SHT31;67861;51.966;5.672;2023-04-06T11:02:31;14.3;47.7
78571;SHT31;67861;51.966;5.672;2023-04-06T11:05:01;14.3;48.1
78571;SHT31;67861;51.966;5.672;2023-04-06T11:07:31;14.3;49.4
78571;SHT31;67861;51.966;5.672;2023-04-06T11:10:03;14.3;49.5
78571;SHT31;67861;51.966;5.672;2023-04-06T11:12:33;14.3;50.6
78571;SHT31;67861;51.966;5.672;2023-04-06T11:15:04;14.3;50.7
78571;SHT31;67861;51.966;5.672;2023-04-06T11:17:35;14.3;51.8
78571;SHT31;67861;51.966;5.672;2023-04-06T11:20:10;14.3;51.2
78571;SHT31;67861;51.966;5.672;2023-04-06T11:22:50;14.3;50.7
78571;SHT31;67861;51.966;5.672;2023-04-06T11:25:20;14.2;50.7
78571;SHT31;67861;51.966;5.672;2023-04-06T11:27:51;14.2;50.7
78571;SHT31;67861;51.966;5.672;2023-04-06T11:30:21;14.2;50.5
78571;SHT31;67861;51.966;5.672;2023-04-06T11:33:00;14.1;52.0
78571;SHT31;67861;51.966;5.672;2023-04-06T11:35:31;14.1;53.0
78571;SHT31;67861;51.966;5.672;2023-04-06T11:38:05;14.1;52.0
78571;SHT31;67861;51.966;5.672;2023-04-06T11:40:35;14.1;52.4
78571;SHT31;67861;51.966;5.672;2023-04-06T11:43:10;14.1;53.2
78571;SHT31;67861;51.966;5.672;2023-04-06T11:45:43;14.0;52.7
78571;SHT31;67861;51.966;5.672;2023-04-06T11:48:20;14.0;52.6
78571;SHT31;67861;51.966;5.672;2023-04-06T11:50:55;14.0;52.3
78571;SHT31;67861;51.966;5.672;2023-04-06T11:53:27;14.0;53.5
78571;SHT31;67861;51.966;5.672;2023-04-06T11:55:58;14.0;55.0
78571;SHT31;67861;51.966;5.672;2023-04-06T11:58:29;13.9;54.6
78571;SHT31;67861;51.966;5.672;2023-04-06T12:01:05;13.9;54.4
78571;SHT31;67861;51.966;5.672;2023-04-06T12:03:34;13.9;52.7
78571;SHT31;67861;51.966;5.672;2023-04-06T12:06:04;13.9;53.0
78571;SHT31;67861;51.966;5.672;2023-04-06T12:08:34;13.9;53.4
78571;SHT31;67861;51.966;5.672;2023-04-06T12:11:07;13.8;51.8
78571;SHT31;67861;51.966;5.672;2023-04-06T12:13:36;13.8;52.2
78571;SHT31;67861;51.966;5.672;2023-04-06T12:16:10;13.7;52.2
78571;SHT31;67861;51.966;5.672;2023-04-06T12:18:41;13.6;54.1
78571;SHT31;67861;51.966;5.672;2023-04-06T12:21:11;13.5;54.6
78571;SHT31;67861;51.966;5.672;2023-04-06T12:23:41;13.4;54.4
78571;SHT31;67861;51.966;5.672;2023-04-06T12:26:14;13.4;54.4
78571;SHT31;67861;51.966;5.672;2023-04-06T12:28:45;13.3;54.3
78571;SHT31;67861;51.966;5.672;2023-04-06T12:31:19;13.3;54.9
78571;SHT31;67861;51.966;5.672;2023-04-06T12:33:50;13.2;55.6
78571;SHT31;67861;51.966;5.672;2023-04-06T12:36:20;13.2;55.9
78571;SHT31;67861;51.966;5.672;2023-04-06T12:38:50;13.1;56.3
78571;SHT31;67861;51.966;5.672;2023-04-06T12:41:21;13.1;56.7
78571;SHT31;67861;51.966;5.672;2023-04-06T12:43:50;13.1;57.1
78571;SHT31;67861;51.966;5.672;2023-04-06T12:46:20;13.0;57.0
78571;SHT31;67861;51.966;5.672;2023-04-06T12:48:51;13.0;57.2
78571;SHT31;67861;51.966;5.672;2023-04-06T12:51:23;13.0;57.9
78571;SHT31;67861;51.966;5.672;2023-04-06T12:53:54;12.9;57.5
78571;SHT31;67861;51.966;5.672;2023-04-06T12:56:25;12.9;57.8
78571;SHT31;67861;51.966;5.672;2023-04-06T12:58:55;12.9;58.0
78571;SHT31;67861;51.966;5.672;2023-04-06T13:01:27;12.9;58.5
78571;SHT31;67861;51.966;5.672;2023-04-06T13:03:57;12.8;58.3
78571;SHT31;67861;51.966;5.672;2023-04-06T13:06:27;12.8;58.5
78571;SHT31;67861;51.966;5.672;2023-04-06T13:08:59;12.8;58.4
78571;SHT31;67861;51.966;5.672;2023-04-06T13:11:29;12.8;57.9
78571;SHT31;67861;51.966;5.672;2023-04-06T13:13:59;12.8;58.1
78571;SHT31;67861;51.966;5.672;2023-04-06T13:16:29;12.7;58.9
78571;SHT31;67861;51.966;5.672;2023-04-06T13:18:59;12.7;59.5
78571;SHT31;67861;51.966;5.672;2023-04-06T13:21:30;12.7;59.2
78571;SHT31;67861;51.966;5.672;2023-04-06T13:23:59;12.7;58.7
78571;SHT31;67861;51.966;5.672;2023-04-06T13:26:29;12.7;58.6
78571;SHT31;67861;51.966;5.672;2023-04-06T13:28:59;12.6;59.0
78571;SHT31;67861;51.966;5.672;2023-04-06T13:31:30;12.6;59.0
78571;SHT31;67861;51.966;5.672;2023-04-06T13:34:00;12.6;58.4
78571;SHT31;67861;51.966;5.672;2023-04-06T13:36:29;12.5;58.7
78571;SHT31;67861;51.966;5.672;2023-04-06T13:38:59;12.5;59.0
78571;SHT31;67861;51.966;5.672;2023-04-06T13:41:29;12.5;59.2
78571;SHT31;67861;51.966;5.672;2023-04-06T13:43:58;12.5;59.3
78571;SHT31;67861;51.966;5.672;2023-04-06T13:46:28;12.4;60.2
78571;SHT31;67861;51.966;5.672;2023-04-06T13:48:58;12.4;60.0
78571;SHT31;67861;51.966;5.672;2023-04-06T13:51:27;12.4;59.8
78571;SHT31;67861;51.966;5.672;2023-04-06T13:53:58;12.4;60.3
78571;SHT31;67861;51.966;5.672;2023-04-06T13:56:27;12.4;61.1
78571;SHT31;67861;51.966;5.672;2023-04-06T13:58:57;12.3;61.3
78571;SHT31;67861;51.966;5.672;2023-04-06T14:01:27;12.3;61.2
78571;SHT31;67861;51.966;5.672;2023-04-06T14:03:57;12.3;61.5
78571;SHT31;67861;51.966;5.672;2023-04-06T14:06:27;12.3;61.4
78571;SHT31;67861;51.966;5.672;2023-04-06T14:08:57;12.3;61.2
78571;SHT31;67861;51.966;5.672;2023-04-06T14:11:30;12.3;61.8
78571;SHT31;67861;51.966;5.672;2023-04-06T14:14:01;12.2;62.0
78571;SHT31;67861;51.966;5.672;2023-04-06T14:16:30;12.2;62.1
78571;SHT31;67861;51.966;5.672;2023-04-06T14:19:00;12.2;62.0
78571;SHT31;67861;51.966;5.672;2023-04-06T14:21:32;12.2;62.0
78571;SHT31;67861;51.966;5.672;2023-04-06T14:24:02;12.2;62.3
78571;SHT31;67861;51.966;5.672;2023-04-06T14:26:31;12.2;62.4
78571;SHT31;67861;51.966;5.672;2023-04-06T14:29:04;12.2;62.7
78571;SHT31;67861;51.966;5.672;2023-04-06T14:31:34;12.2;62.4
78571;SHT31;67861;51.966;5.672;2023-04-06T14:34:04;12.2;62.3
78571;SHT31;67861;51.966;5.672;2023-04-06T14:36:34;12.2;62.6
78571;SHT31;67861;51.966;5.672;2023-04-06T14:39:06;12.2;62.6
78571;SHT31;67861;51.966;5.672;2023-04-06T14:41:37;12.1;62.9
78571;SHT31;67861;51.966;5.672;2023-04-06T14:44:08;12.1;62.8
78571;SHT31;67861;51.966;5.672;2023-04-06T14:46:40;12.1;62.8
78571;SHT31;67861;51.966;5.672;2023-04-06T14:49:12;12.1;63.0
78571;SHT31;67861;51.966;5.672;2023-04-06T14:51:43;12.1;63.0
78571;SHT31;67861;51.966;5.672;2023-04-06T14:54:13;12.1;63.4
78571;SHT31;67861;51.966;5.672;2023-04-06T14:56:47;12.1;63.5
78571;SHT31;67861;51.966;5.672;2023-04-06T14:59:17;12.1;63.6
78571;SHT31;67861;51.966;5.672;2023-04-06T15:01:48;12.1;64.1
78571;SHT31;67861;51.966;5.672;2023-04-06T15:04:18;12.1;63.9
78571;SHT31;67861;51.966;5.672;2023-04-06T15:06:49;12.1;64.0
78571;SHT31;67861;51.966;5.672;2023-04-06T15:09:19;12.1;63.7
78571;SHT31;67861;51.966;5.672;2023-04-06T15:11:49;12.1;63.8
78571;SHT31;67861;51.966;5.672;2023-04-06T15:14:18;12.0;64.2
78571;SHT31;67861;51.966;5.672;2023-04-06T15:16:48;12.0;64.1
78571;SHT31;67861;51.966;5.672;2023-04-06T15:19:17;12.0;64.3
78571;SHT31;67861;51.966;5.672;2023-04-06T15:21:47;12.0;64.1
78571;SHT31;67861;51.966;5.672;2023-04-06T15:24:17;12.0;64.2
78571;SHT31;67861;51.966;5.672;2023-04-06T15:26:47;12.0;64.4
78571;SHT31;67861;51.966;5.672;2023-04-06T15:29:17;12.0;64.1
78571;SHT31;67861;51.966;5.672;2023-04-06T15:31:46;12.0;64.3
78571;SHT31;67861;51.966;5.672;2023-04-06T15:34:17;12.0;64.7
78571;SHT31;67861;51.966;5.672;2023-04-06T15:36:48;12.0;64.6
78571;SHT31;67861;51.966;5.672;2023-04-06T15:39:18;12.0;64.7
78571;SHT31;67861;51.966;5.672;2023-04-06T15:41:48;12.0;64.4
78571;SHT31;67861;51.966;5.672;2023-04-06T15:44:18;12.0;64.7
78571;SHT31;67861;51.966;5.672;2023-04-06T15:46:52;12.0;64.8
78571;SHT31;67861;51.966;5.672;2023-04-06T15:49:24;12.0;64.9
78571;SHT31;67861;51.966;5.672;2023-04-06T15:51:54;12.0;64.8
78571;SHT31;67861;51.966;5.672;2023-04-06T15:54:23;12.0;65.1
78571;SHT31;67861;51.966;5.672;2023-04-06T15:56:53;11.9;65.4
78571;SHT31;67861;51.966;5.672;2023-04-06T15:59:23;11.9;65.2
78571;SHT31;67861;51.966;5.672;2023-04-06T16:01:55;11.9;65.4
78571;SHT31;67861;51.966;5.672;2023-04-06T16:04:26;11.9;65.6
78571;SHT31;67861;51.966;5.672;2023-04-06T16:06:56;12.0;65.6
78571;SHT31;67861;51.966;5.672;2023-04-06T16:09:25;12.0;65.5
78571;SHT31;67861;51.966;5.672;2023-04-06T16:11:55;12.0;65.5
78571;SHT31;67861;51.966;5.672;2023-04-06T16:14:24;12.0;65.5
78571;SHT31;67861;51.966;5.672;2023-04-06T16:16:54;12.0;65.5
78571;SHT31;67861;51.966;5.672;2023-04-06T16:19:24;12.0;65.6
78571;SHT31;67861;51.966;5.672;2023-04-06T16:21:53;12.0;65.5
78571;SHT31;67861;51.966;5.672;2023-04-06T16:24:24;12.0;65.6
78571;SHT31;67861;51.966;5.672;2023-04-06T16:26:53;12.0;65.7
78571;SHT31;67861;51.966;5.672;2023-04-06T16:29:25;12.0;65.5
78571;SHT31;67861;51.966;5.672;2023-04-06T16:31:58;12.1;65.3